createdAt,value
2022-09-03T00:00:12.005Z,23.30
2022-09-03T00:02:49.792Z,23.30
2022-09-03T00:05:38.292Z,23.30
2022-09-03T00:08:05.131Z,23.30
2022-09-03T00:10:44.651Z,23.30
2022-09-03T00:13:17.617Z,23.20
2022-09-03T00:15:44.401Z,23.20
2022-09-03T00:18:16.673Z,23.20
2022-09-03T00:21:08.525Z,23.10
2022-09-03T00:23:40.092Z,23.10
2022-09-03T00:26:12.792Z,23.10
2022-09-03T00:28:50.175Z,23.10
2022-09-03T00:31:23.058Z,23.10
2022-09-03T00:33:52.784Z,23.00
2022-09-03T00:36:44.849Z,23.00
2022-09-03T00:39:14.919Z,23.00
2022-09-03T00:41:53.944Z,23.00
2022-09-03T00:44:39.054Z,23.00
2022-09-03T00:47:13.755Z,23.00
2022-09-03T00:50:00.920Z,23.00
2022-09-03T00:52:52.324Z,22.90
2022-09-03T00:55:47.553Z,22.90
2022-09-03T00:58:35.392Z,22.90
2022-09-03T01:01:10.648Z,22.90
2022-09-03T01:04:06.426Z,22.90
2022-09-03T01:06:48.423Z,22.90
2022-09-03T01:09:23.685Z,22.90
2022-09-03T01:12:02.308Z,22.80
2022-09-03T01:14:52.648Z,22.80
2022-09-03T01:17:33.580Z,22.80
2022-09-03T01:20:18.122Z,22.90
2022-09-03T01:23:02.903Z,22.90
2022-09-03T01:25:48.343Z,22.90
2022-09-03T01:28:15.071Z,22.80
2022-09-03T01:30:49.256Z,22.80
2022-09-03T01:33:41.107Z,22.90
2022-09-03T01:36:32.151Z,22.80
2022-09-03T01:39:06.348Z,22.90
2022-09-03T01:42:16.429Z,22.80
2022-09-03T01:45:12.096Z,22.80
2022-09-03T01:47:52.280Z,22.80
2022-09-03T01:50:19.109Z,22.80
2022-09-03T01:52:54.783Z,22.70
2022-09-03T01:56:16.224Z,22.70
2022-09-03T01:59:02.663Z,22.60
2022-09-03T02:01:56.881Z,22.60
2022-09-03T02:04:26.651Z,22.60
2022-09-03T02:06:57.391Z,22.60
2022-09-03T02:09:24.404Z,22.50
2022-09-03T02:12:20.310Z,22.60
2022-09-03T02:14:47.264Z,22.40
2022-09-03T02:17:14.136Z,22.50
2022-09-03T02:19:41.516Z,22.40
2022-09-03T02:22:08.355Z,22.40
2022-09-03T02:24:35.224Z,22.30
2022-09-03T02:27:02.318Z,22.30
2022-09-03T02:29:29.539Z,22.30
2022-09-03T02:31:57.758Z,22.20
2022-09-03T02:34:24.742Z,22.20
2022-09-03T02:36:52.487Z,22.30
2022-09-03T02:39:19.258Z,22.20
2022-09-03T02:41:51.536Z,22.10
2022-09-03T02:44:28.173Z,22.10
2022-09-03T02:47:03.576Z,22.10
2022-09-03T02:49:31.200Z,22.10
2022-09-03T02:52:01.032Z,22.10
2022-09-03T02:54:28.928Z,22.10
2022-09-03T02:56:55.783Z,22.10
2022-09-03T02:59:22.837Z,22.00
2022-09-03T03:01:49.983Z,22.10
2022-09-03T03:04:16.918Z,22.00
2022-09-03T03:06:43.702Z,22.00
2022-09-03T03:09:14.521Z,22.00
2022-09-03T03:11:41.304Z,22.00
2022-09-03T03:14:08.042Z,22.00
2022-09-03T03:16:35.386Z,22.00
2022-09-03T03:19:02.253Z,22.00
2022-09-03T03:21:29.332Z,22.00
2022-09-03T03:23:56.067Z,22.00
2022-09-03T03:26:24.175Z,22.00
2022-09-03T03:28:57.140Z,22.00
2022-09-03T03:31:24.546Z,21.90
2022-09-03T03:33:56.787Z,22.00
2022-09-03T03:36:25.195Z,22.00
2022-09-03T03:38:55.305Z,21.90
2022-09-03T03:41:25.095Z,21.90
2022-09-03T03:43:56.466Z,21.90
2022-09-03T03:46:24.604Z,21.90
2022-09-03T03:48:52.604Z,21.90
2022-09-03T03:51:19.755Z,21.90
2022-09-03T03:53:47.134Z,21.90
2022-09-03T03:56:16.316Z,21.90
2022-09-03T03:58:44.250Z,21.90
2022-09-03T04:01:19.715Z,21.90
2022-09-03T04:03:46.865Z,21.90
2022-09-03T04:06:16.768Z,22.00
2022-09-03T04:08:45.542Z,21.90
2022-09-03T04:11:17.128Z,21.90
2022-09-03T04:13:45.531Z,21.90
2022-09-03T04:16:25.592Z,21.90
2022-09-03T04:18:56.381Z,21.90
2022-09-03T04:21:28.725Z,21.90
2022-09-03T04:23:56.549Z,21.90
2022-09-03T04:26:26.746Z,21.90
2022-09-03T04:28:53.566Z,21.80
2022-09-03T04:31:21.761Z,21.80
2022-09-03T04:33:48.728Z,21.90
2022-09-03T04:36:20.685Z,21.80
2022-09-03T04:38:49.823Z,21.90
2022-09-03T04:41:25.296Z,21.80
2022-09-03T04:43:54.114Z,21.80
2022-09-03T04:46:23.360Z,21.80
2022-09-03T04:48:52.112Z,21.80
2022-09-03T04:51:24.502Z,21.70
2022-09-03T04:53:57.043Z,21.70
2022-09-03T04:56:26.746Z,21.80
2022-09-03T04:58:59.646Z,21.70
2022-09-03T05:01:31.211Z,21.60
2022-09-03T05:03:58.982Z,21.60
2022-09-03T05:06:27.070Z,21.60
2022-09-03T05:08:55.538Z,21.60
2022-09-03T05:11:23.593Z,21.60
2022-09-03T05:13:53.423Z,21.60
2022-09-03T05:16:21.205Z,21.60
2022-09-03T05:18:48.415Z,21.70
2022-09-03T05:21:17.843Z,21.60
2022-09-03T05:23:47.107Z,21.60
2022-09-03T05:26:16.847Z,21.60
2022-09-03T05:28:44.015Z,21.60
2022-09-03T05:31:16.449Z,21.60
2022-09-03T05:33:51.330Z,21.60
2022-09-03T05:36:20.619Z,21.60
2022-09-03T05:38:47.627Z,21.60
2022-09-03T05:41:16.072Z,21.60
2022-09-03T05:43:43.329Z,21.60
2022-09-03T05:46:18.455Z,21.50
2022-09-03T05:48:45.497Z,21.50
2022-09-03T05:51:16.270Z,21.50
2022-09-03T05:53:45.581Z,21.50
2022-09-03T05:56:18.078Z,21.50
2022-09-03T05:58:50.091Z,21.50
2022-09-03T06:01:20.069Z,21.50
2022-09-03T06:03:53.532Z,21.50
2022-09-03T06:06:25.387Z,21.60
2022-09-03T06:08:53.078Z,21.70
2022-09-03T06:11:19.856Z,21.70
2022-09-03T06:13:47.440Z,21.70
2022-09-03T06:16:14.612Z,21.70
2022-09-03T06:18:41.519Z,21.70
2022-09-03T06:21:08.679Z,21.70
2022-09-03T06:23:36.228Z,21.70
2022-09-03T06:26:11.575Z,21.70
2022-09-03T06:28:41.161Z,21.70
2022-09-03T06:31:10.407Z,21.70
2022-09-03T06:33:38.166Z,21.70
2022-09-03T06:36:08.958Z,21.70
2022-09-03T06:38:37.776Z,21.70
2022-09-03T06:41:10.371Z,21.80
2022-09-03T06:43:39.125Z,21.80
2022-09-03T06:46:11.734Z,21.80
2022-09-03T06:48:40.719Z,21.90
2022-09-03T06:51:15.742Z,22.00
2022-09-03T06:53:47.966Z,22.10
2022-09-03T06:56:17.425Z,22.10
2022-09-03T06:58:47.315Z,22.30
2022-09-03T07:01:26.288Z,22.40
2022-09-03T07:03:57.851Z,22.50
2022-09-03T07:06:27.286Z,22.70
2022-09-03T07:08:56.504Z,22.80
2022-09-03T07:11:27.500Z,23.00
2022-09-03T07:13:55.937Z,23.20
2022-09-03T07:16:28.012Z,23.30
2022-09-03T07:18:56.036Z,23.50
2022-09-03T07:21:28.235Z,23.60
2022-09-03T07:23:55.982Z,23.80
2022-09-03T07:26:29.334Z,23.90
2022-09-03T07:28:56.302Z,24.00
2022-09-03T07:31:32.096Z,24.20
2022-09-03T07:34:01.552Z,24.30
2022-09-03T07:36:30.537Z,24.40
2022-09-03T07:39:03.905Z,24.60
2022-09-03T07:41:33.156Z,24.70
2022-09-03T07:44:05.767Z,24.90
2022-09-03T07:46:35.337Z,25.00
2022-09-03T07:49:02.711Z,25.20
2022-09-03T07:51:32.033Z,25.30
2022-09-03T07:54:02.187Z,25.40
2022-09-03T07:56:32.269Z,25.40
2022-09-03T07:58:59.407Z,25.40
2022-09-03T08:01:28.576Z,25.40
2022-09-03T08:03:56.095Z,25.50
2022-09-03T08:06:25.888Z,25.50
2022-09-03T08:09:05.097Z,25.50
2022-09-03T08:11:36.219Z,25.50
2022-09-03T08:14:06.678Z,25.60
2022-09-03T08:16:36.222Z,25.70
2022-09-03T08:19:03.119Z,25.80
2022-09-03T08:21:29.855Z,25.80
2022-09-03T08:24:02.850Z,25.90
2022-09-03T08:26:35.022Z,26.00
2022-09-03T08:29:03.016Z,26.00
2022-09-03T08:31:30.482Z,26.00
2022-09-03T08:33:59.674Z,26.20
2022-09-03T08:36:31.324Z,26.30
2022-09-03T08:39:04.044Z,26.30
2022-09-03T08:41:53.541Z,26.40
2022-09-03T08:44:35.443Z,26.50
2022-09-03T08:47:20.724Z,26.60
2022-09-03T08:49:50.195Z,26.70
2022-09-03T08:52:25.003Z,26.80
2022-09-03T08:54:55.789Z,26.90
2022-09-03T08:57:22.963Z,27.00
2022-09-03T08:59:53.117Z,27.10
2022-09-03T09:02:44.654Z,27.20
2022-09-03T09:05:23.469Z,27.40
2022-09-03T09:07:55.334Z,27.50
2022-09-03T09:10:46.999Z,27.70
2022-09-03T09:13:45.008Z,27.80
2022-09-03T09:16:41.764Z,28.00
2022-09-03T09:19:30.314Z,28.10
2022-09-03T09:22:03.283Z,28.30
2022-09-03T09:24:40.268Z,28.60
2022-09-03T09:27:19.622Z,28.80
2022-09-03T09:29:51.821Z,29.00
2022-09-03T09:32:20.253Z,29.20
2022-09-03T09:34:52.307Z,29.40
2022-09-03T09:37:20.284Z,29.50
2022-09-03T09:40:01.065Z,29.70
2022-09-03T09:42:30.943Z,29.80
2022-09-03T09:44:57.869Z,29.90
2022-09-03T09:47:33.900Z,30.10
2022-09-03T09:50:02.802Z,30.20
2022-09-03T09:52:31.447Z,30.30
2022-09-03T09:55:09.043Z,30.50
2022-09-03T09:57:37.239Z,30.70
2022-09-03T10:00:11.231Z,31.00
2022-09-03T10:02:48.681Z,31.20
2022-09-03T10:05:28.312Z,31.40
2022-09-03T10:08:07.551Z,31.60
2022-09-03T10:10:49.728Z,31.80
2022-09-03T10:13:25.009Z,32.10
2022-09-03T10:15:58.813Z,32.30
2022-09-03T10:18:53.003Z,32.40
2022-09-03T10:21:39.158Z,32.30
2022-09-03T10:24:39.483Z,32.10
2022-09-03T10:27:12.562Z,32.10
2022-09-03T10:29:41.635Z,32.20
2022-09-03T10:32:25.556Z,32.20
2022-09-03T10:35:01.692Z,32.30
2022-09-03T10:37:38.694Z,32.40
2022-09-03T10:40:05.484Z,32.50
2022-09-03T10:43:06.160Z,32.60
2022-09-03T10:45:48.262Z,32.70
2022-09-03T10:48:51.552Z,32.90
2022-09-03T10:51:57.435Z,33.20
2022-09-03T10:54:45.571Z,33.50
2022-09-03T10:57:50.995Z,33.60
2022-09-03T11:00:19.577Z,33.60
2022-09-03T11:03:27.712Z,33.60
2022-09-03T11:05:57.531Z,33.60
2022-09-03T11:08:48.324Z,33.80
2022-09-03T11:11:41.101Z,34.00
2022-09-03T11:14:10.797Z,34.10
2022-09-03T11:16:45.239Z,34.50
2022-09-03T11:19:19.069Z,34.90
2022-09-03T11:21:47.948Z,35.30
2022-09-03T11:24:19.434Z,35.60
2022-09-03T11:26:54.243Z,35.70
2022-09-03T11:29:38.085Z,35.50
2022-09-03T11:32:24.702Z,35.10
2022-09-03T11:34:54.463Z,34.80
2022-09-03T11:37:30.454Z,34.60
2022-09-03T11:40:11.658Z,34.50
2022-09-03T11:42:41.913Z,34.60
2022-09-03T11:45:34.907Z,35.00
2022-09-03T11:48:02.144Z,35.40
2022-09-03T11:50:31.016Z,35.70
2022-09-03T11:53:14.829Z,35.80
2022-09-03T11:56:12.981Z,35.80
2022-09-03T11:58:42.864Z,35.90
2022-09-03T12:01:16.039Z,36.10
2022-09-03T12:04:03.282Z,36.30
2022-09-03T12:06:45.103Z,36.50
2022-09-03T12:09:33.759Z,36.50
2022-09-03T12:12:28.429Z,36.50
2022-09-03T12:15:14.680Z,36.60
2022-09-03T12:18:16.097Z,36.60
2022-09-03T12:20:43.872Z,36.80
2022-09-03T12:23:12.211Z,37.20
2022-09-03T12:25:48.748Z,37.70
2022-09-03T12:28:23.390Z,38.40
2022-09-03T12:30:53.676Z,39.00
2022-09-03T12:33:23.008Z,39.60
2022-09-03T12:35:59.151Z,40.20
2022-09-03T12:38:29.344Z,40.20
2022-09-03T12:43:52.566Z,41.20
2022-09-03T12:46:30.270Z,42.20
2022-09-03T12:52:19.543Z,41.70
2022-09-03T12:55:01.359Z,41.30
2022-09-03T12:57:39.002Z,40.90
2022-09-03T13:00:13.208Z,40.60
2022-09-03T13:02:51.359Z,40.30
2022-09-03T13:05:22.055Z,40.00
2022-09-03T13:07:55.351Z,40.10
2022-09-03T13:10:27.888Z,39.90
2022-09-03T13:13:06.360Z,39.60
2022-09-03T13:15:33.301Z,39.30
2022-09-03T13:18:25.519Z,39.30
2022-09-03T13:21:15.216Z,39.30
2022-09-03T13:24:00.494Z,39.30
2022-09-03T13:26:51.741Z,39.20
2022-09-03T13:29:27.695Z,39.30
2022-09-03T13:32:06.134Z,39.70
2022-09-03T13:34:43.043Z,40.70
2022-09-03T13:37:27.519Z,41.60
2022-09-03T13:40:15.875Z,42.00
2022-09-03T13:42:50.832Z,42.70
2022-09-03T13:45:27.962Z,43.00
2022-09-03T13:48:37.884Z,43.00
2022-09-03T13:51:23.700Z,42.30
2022-09-03T13:54:04.700Z,41.30
2022-09-03T13:56:49.687Z,40.70
2022-09-03T13:59:52.507Z,40.00
2022-09-03T14:02:50.145Z,39.30
2022-09-03T14:05:39.060Z,38.50
2022-09-03T14:08:22.757Z,37.80
2022-09-03T14:11:15.174Z,37.10
2022-09-03T14:14:01.047Z,36.60
2022-09-03T14:17:12.348Z,36.10
2022-09-03T14:19:43.512Z,35.80
2022-09-03T14:22:23.081Z,36.00
2022-09-03T14:24:59.224Z,36.50
2022-09-03T14:27:28.903Z,36.70
2022-09-03T14:30:07.740Z,36.80
2022-09-03T14:32:49.420Z,36.60
2022-09-03T14:35:29.806Z,36.00
2022-09-03T14:38:25.777Z,35.50
2022-09-03T14:41:14.243Z,34.90
2022-09-03T14:44:22.598Z,34.40
2022-09-03T14:46:59.745Z,34.10
2022-09-03T14:49:26.475Z,33.70
2022-09-03T14:52:24.186Z,33.50
2022-09-03T14:54:59.840Z,33.20
2022-09-03T14:57:45.756Z,33.00
2022-09-03T15:00:20.188Z,32.80
2022-09-03T15:03:20.848Z,32.70
2022-09-03T15:05:53.554Z,32.60
2022-09-03T15:08:39.615Z,32.50
2022-09-03T15:11:25.983Z,32.40
2022-09-03T15:14:14.971Z,32.20
2022-09-03T15:17:28.092Z,32.10
2022-09-03T15:20:23.714Z,32.10
2022-09-03T15:22:58.038Z,32.00
2022-09-03T15:25:51.006Z,32.00
2022-09-03T15:28:24.591Z,31.90
2022-09-03T15:31:14.262Z,31.90
2022-09-03T15:34:11.205Z,31.80
2022-09-03T15:36:53.670Z,31.80
2022-09-03T15:39:35.202Z,31.80
2022-09-03T15:42:19.009Z,31.70
2022-09-03T15:44:54.043Z,31.70
2022-09-03T15:47:54.365Z,31.60
2022-09-03T15:50:50.164Z,31.60
2022-09-03T15:53:37.813Z,31.50
2022-09-03T15:56:18.436Z,31.50
2022-09-03T15:59:07.428Z,31.50
2022-09-03T16:01:51.043Z,31.50
2022-09-03T16:04:41.255Z,31.30
2022-09-03T16:07:30.238Z,31.30
2022-09-03T16:10:24.530Z,31.30
2022-09-03T16:13:07.840Z,31.30
2022-09-03T16:15:47.065Z,31.30
2022-09-03T16:18:22.713Z,31.30
2022-09-03T16:21:28.872Z,31.20
2022-09-03T16:24:23.158Z,31.20
2022-09-03T16:27:16.494Z,31.20
2022-09-03T16:30:09.959Z,31.20
2022-09-03T16:32:59.554Z,31.20
2022-09-03T16:35:46.212Z,31.30
2022-09-03T16:38:28.778Z,31.30
2022-09-03T16:41:27.897Z,31.30
2022-09-03T16:44:06.655Z,31.20
2022-09-03T16:46:44.376Z,31.20
2022-09-03T16:49:51.728Z,31.20
2022-09-03T16:52:38.552Z,31.20
2022-09-03T16:55:31.635Z,31.20
2022-09-03T16:58:11.344Z,31.10
2022-09-03T17:01:27.867Z,31.10
2022-09-03T17:04:17.565Z,31.10
2022-09-03T17:07:13.491Z,31.00
2022-09-03T17:10:15.336Z,30.90
2022-09-03T17:12:58.576Z,30.90
2022-09-03T17:15:50.905Z,30.90
2022-09-03T17:18:41.341Z,30.90
2022-09-03T17:21:26.359Z,30.90
2022-09-03T17:24:11.434Z,30.80
2022-09-03T17:27:04.497Z,30.80
2022-09-03T17:29:51.943Z,30.70
2022-09-03T17:32:27.996Z,30.70
2022-09-03T17:35:19.661Z,30.70
2022-09-03T17:38:08.408Z,30.60
2022-09-03T17:40:53.908Z,30.60
2022-09-03T17:43:50.476Z,30.50
2022-09-03T17:46:41.711Z,30.40
2022-09-03T17:49:14.548Z,30.30
2022-09-03T17:51:51.875Z,30.20
2022-09-03T17:54:24.370Z,30.00
2022-09-03T17:56:54.201Z,29.90
2022-09-03T17:59:23.727Z,29.70
2022-09-03T18:01:58.456Z,29.60
2022-09-03T18:04:42.674Z,29.50
2022-09-03T18:07:38.110Z,29.30
2022-09-03T18:10:16.239Z,29.20
2022-09-03T18:13:03.763Z,29.10
2022-09-03T18:15:48.352Z,29.00
2022-09-03T18:18:28.361Z,28.90
2022-09-03T18:21:30.621Z,28.70
2022-09-03T18:24:52.336Z,28.70
2022-09-03T18:27:48.026Z,28.50
2022-09-03T18:30:34.452Z,28.40
2022-09-03T18:33:20.175Z,28.30
2022-09-03T18:36:05.982Z,28.20
2022-09-03T18:38:56.296Z,28.10
2022-09-03T18:41:56.543Z,27.90
2022-09-03T18:45:01.730Z,27.90
2022-09-03T18:48:11.856Z,27.70
2022-09-03T18:51:25.946Z,27.70
2022-09-03T18:54:45.079Z,27.60
2022-09-03T18:58:12.640Z,27.50
2022-09-03T19:01:11.477Z,27.30
2022-09-03T19:04:36.267Z,27.20
2022-09-03T19:07:37.697Z,27.10
2022-09-03T19:10:40.863Z,27.00
2022-09-03T19:13:32.227Z,27.00
2022-09-03T19:16:58.820Z,26.90
2022-09-03T19:20:13.003Z,26.90
2022-09-03T19:22:59.809Z,26.70
2022-09-03T19:25:48.134Z,26.70
2022-09-03T19:28:45.185Z,26.70
2022-09-03T19:31:42.649Z,26.60
2022-09-03T19:34:37.151Z,26.50
2022-09-03T19:37:44.388Z,26.50
2022-09-03T19:40:57.806Z,26.40
2022-09-03T19:44:14.110Z,26.40
2022-09-03T19:47:05.583Z,26.30
2022-09-03T19:50:11.645Z,26.30
2022-09-03T19:53:18.109Z,26.20
2022-09-03T19:56:12.571Z,26.20
2022-09-03T19:59:18.503Z,26.10
2022-09-03T20:02:05.561Z,26.00
2022-09-03T20:05:00.023Z,26.00
2022-09-03T20:07:45.712Z,25.90
2022-09-03T20:10:25.076Z,25.90
2022-09-03T20:12:54.771Z,25.80
2022-09-03T20:15:26.289Z,25.80
2022-09-03T20:18:04.387Z,25.80
2022-09-03T20:20:48.757Z,25.80
2022-09-03T20:23:36.159Z,25.70
2022-09-03T20:26:33.668Z,25.70
2022-09-03T20:29:36.553Z,25.70
2022-09-03T20:32:17.180Z,25.60
2022-09-03T20:34:55.837Z,25.60
2022-09-03T20:37:36.188Z,25.50
2022-09-03T20:40:11.950Z,25.40
2022-09-03T20:43:06.132Z,25.40
2022-09-03T20:45:58.187Z,25.40
2022-09-03T20:48:34.141Z,25.30
2022-09-03T20:51:03.680Z,25.30
2022-09-03T20:53:54.813Z,25.20
2022-09-03T20:56:40.049Z,25.20
2022-09-03T20:59:34.259Z,25.10
2022-09-03T21:02:11.895Z,25.10
2022-09-03T21:05:07.755Z,25.00
2022-09-03T21:07:49.097Z,25.00
2022-09-03T21:10:41.215Z,25.00
2022-09-03T21:13:19.491Z,24.90
2022-09-03T21:16:21.466Z,24.80
2022-09-03T21:19:09.412Z,24.80
2022-09-03T21:22:01.608Z,24.70
2022-09-03T21:24:36.706Z,24.60
2022-09-03T21:27:24.140Z,24.60
2022-09-03T21:30:08.676Z,24.60
2022-09-03T21:32:49.950Z,24.50
2022-09-03T21:35:55.298Z,24.50
2022-09-03T21:38:25.842Z,24.50
2022-09-03T21:41:14.460Z,24.50
2022-09-03T21:44:07.025Z,24.40
2022-09-03T21:46:52.392Z,24.40
2022-09-03T21:49:26.251Z,24.30
2022-09-03T21:52:07.827Z,24.30
2022-09-03T21:54:35.027Z,24.30
2022-09-03T21:57:24.905Z,24.30
2022-09-03T22:00:29.511Z,24.20
2022-09-03T22:02:59.096Z,24.10
2022-09-03T22:05:37.021Z,24.20
2022-09-03T22:08:23.297Z,24.10
2022-09-03T22:10:57.819Z,24.00
2022-09-03T22:13:32.036Z,24.00
2022-09-03T22:16:13.331Z,24.00
2022-09-03T22:18:40.513Z,24.00
2022-09-03T22:21:16.398Z,24.00
2022-09-03T22:24:18.898Z,24.00
2022-09-03T22:27:02.911Z,23.90
2022-09-03T22:29:46.343Z,23.90
2022-09-03T22:32:40.466Z,23.80
2022-09-03T22:35:28.529Z,23.80
2022-09-03T22:38:15.860Z,23.80
2022-09-03T22:40:55.555Z,23.80
2022-09-03T22:43:44.487Z,23.80
2022-09-03T22:46:14.769Z,23.70
2022-09-03T22:48:56.270Z,23.70
2022-09-03T22:51:23.834Z,23.60
2022-09-03T22:54:26.752Z,23.60
2022-09-03T22:56:56.112Z,23.60
2022-09-03T22:59:35.927Z,23.60
2022-09-03T23:02:15.371Z,23.50
2022-09-03T23:04:55.775Z,23.50
2022-09-03T23:07:39.085Z,23.50
2022-09-03T23:10:11.158Z,23.50
2022-09-03T23:12:52.354Z,23.50
2022-09-03T23:15:30.428Z,23.40
2022-09-03T23:18:19.947Z,23.40
2022-09-03T23:21:05.840Z,23.40
2022-09-03T23:23:42.239Z,23.30
2022-09-03T23:26:38.924Z,23.30
2022-09-03T23:29:25.990Z,23.30
2022-09-03T23:31:56.988Z,23.30
2022-09-03T23:34:24.725Z,23.20
2022-09-03T23:37:34.289Z,23.20
2022-09-03T23:40:13.300Z,23.10
2022-09-03T23:43:13.994Z,23.10
2022-09-03T23:46:00.443Z,23.10
2022-09-03T23:48:42.172Z,23.10
2022-09-03T23:51:56.138Z,23.10
2022-09-03T23:54:42.876Z,23.00
2022-09-03T23:57:22.862Z,23.00
